createdAt,value
2023-01-26T00:01:44.642Z,102005.94
2023-01-26T00:04:29.498Z,101999.28
2023-01-26T00:07:14.452Z,101992.72
2023-01-26T00:09:59.187Z,101987.03
2023-01-26T00:12:44.058Z,101994.75
2023-01-26T00:15:28.963Z,101986.13
2023-01-26T00:18:14.613Z,101982.25
2023-01-26T00:21:02.073Z,101978.66
2023-01-26T00:23:48.015Z,101978.84
2023-01-26T00:26:33.074Z,101986.53
2023-01-26T00:29:17.810Z,101977.81
2023-01-26T00:32:02.737Z,101974.25
2023-01-26T00:34:47.605Z,101961.06
2023-01-26T00:37:32.908Z,101959.56
2023-01-26T00:40:18.023Z,101954.19
2023-01-26T00:43:03.068Z,101946.59
2023-01-26T00:45:47.813Z,101946.88
2023-01-26T00:48:32.499Z,101948.53
2023-01-26T00:51:17.395Z,101946.72
2023-01-26T00:54:02.199Z,101933.81
2023-01-26T00:56:47.020Z,101938.78
2023-01-26T00:59:32.322Z,101932.28
2023-01-26T01:02:17.280Z,101931.97
2023-01-26T01:05:02.253Z,101944.41
2023-01-26T01:07:46.984Z,101940.16
2023-01-26T01:10:32.067Z,101934.88
2023-01-26T01:13:16.869Z,101930.53
2023-01-26T01:16:06.667Z,101924.00
2023-01-26T01:18:55.931Z,101922.63
2023-01-26T01:21:41.116Z,101928.09
2023-01-26T01:24:26.390Z,101927.09
2023-01-26T01:27:11.500Z,101913.19
2023-01-26T01:29:56.245Z,101907.31
2023-01-26T01:32:41.186Z,101910.78
2023-01-26T01:35:25.946Z,101905.00
2023-01-26T01:38:10.908Z,101906.66
2023-01-26T01:40:56.193Z,101909.06
2023-01-26T01:43:41.618Z,101908.44
2023-01-26T01:46:32.345Z,101907.44
2023-01-26T01:49:23.939Z,101903.75
2023-01-26T01:52:26.131Z,101894.44
2023-01-26T01:55:12.845Z,101896.53
2023-01-26T01:58:00.918Z,101897.72
2023-01-26T02:00:46.178Z,101899.53
2023-01-26T02:03:33.716Z,101898.44
2023-01-26T02:06:31.759Z,101886.00
2023-01-26T02:09:37.616Z,101879.22
2023-01-26T02:12:27.195Z,101874.63
2023-01-26T02:15:12.807Z,101871.53
2023-01-26T02:18:03.415Z,101871.66
2023-01-26T02:20:51.822Z,101877.00
2023-01-26T02:23:53.593Z,101879.13
2023-01-26T02:26:38.612Z,101864.94
2023-01-26T02:29:23.861Z,101872.88
2023-01-26T02:32:08.856Z,101869.97
2023-01-26T02:34:57.798Z,101866.66
2023-01-26T02:37:42.551Z,101866.63
2023-01-26T02:40:38.461Z,101863.81
2023-01-26T02:43:26.141Z,101864.03
2023-01-26T02:46:10.969Z,101866.53
2023-01-26T02:49:14.482Z,101862.88
2023-01-26T02:51:59.537Z,101853.97
2023-01-26T02:55:03.679Z,101852.78
2023-01-26T02:57:51.185Z,101850.50
2023-01-26T03:00:37.184Z,101853.56
2023-01-26T03:03:25.689Z,101843.63
2023-01-26T03:06:12.635Z,101837.97
2023-01-26T03:08:57.727Z,101840.13
2023-01-26T03:11:42.663Z,101838.94
2023-01-26T03:14:27.525Z,101832.50
2023-01-26T03:17:12.357Z,101830.56
2023-01-26T03:20:15.878Z,101824.88
2023-01-26T03:23:19.731Z,101819.44
2023-01-26T03:26:23.600Z,101830.69
2023-01-26T03:29:08.676Z,101809.75
2023-01-26T03:31:54.388Z,101814.94
2023-01-26T03:34:39.512Z,101815.00
2023-01-26T03:37:24.386Z,101812.16
2023-01-26T03:40:30.393Z,101808.59
2023-01-26T03:43:34.140Z,101804.31
2023-01-26T03:46:37.972Z,101822.78
2023-01-26T03:49:41.925Z,101815.78
2023-01-26T03:52:45.843Z,101809.75
2023-01-26T03:55:49.791Z,101802.47
2023-01-26T03:58:34.959Z,101806.44
2023-01-26T04:01:26.027Z,101812.38
2023-01-26T04:04:30.322Z,101803.53
2023-01-26T04:07:34.215Z,101812.09
2023-01-26T04:10:19.590Z,101803.31
2023-01-26T04:13:23.080Z,101804.53
2023-01-26T04:16:29.391Z,101800.78
2023-01-26T04:19:33.020Z,101801.25
2023-01-26T04:22:18.008Z,101796.19
2023-01-26T04:25:02.905Z,101793.25
2023-01-26T04:27:47.642Z,101792.19
2023-01-26T04:30:32.461Z,101794.81
2023-01-26T04:33:17.200Z,101799.69
2023-01-26T04:36:06.917Z,101796.06
2023-01-26T04:38:52.071Z,101789.22
2023-01-26T04:41:36.888Z,101785.84
2023-01-26T04:44:21.639Z,101785.44
2023-01-26T04:47:06.430Z,101782.97
2023-01-26T04:49:51.220Z,101782.00
2023-01-26T04:52:36.153Z,101789.78
2023-01-26T04:55:21.100Z,101796.75
2023-01-26T04:58:06.004Z,101802.22
2023-01-26T05:00:52.327Z,101797.81
2023-01-26T05:03:37.122Z,101789.75
2023-01-26T05:06:21.928Z,101784.53
2023-01-26T05:09:06.774Z,101784.13
2023-01-26T05:11:51.664Z,101786.28
2023-01-26T05:14:36.436Z,101792.91
2023-01-26T05:17:21.338Z,101783.47
2023-01-26T05:20:06.634Z,101797.88
2023-01-26T05:22:51.548Z,101801.72
2023-01-26T05:25:36.398Z,101800.53
2023-01-26T05:28:21.231Z,101800.88
2023-01-26T05:31:06.010Z,101801.41
2023-01-26T05:33:50.802Z,101810.56
2023-01-26T05:36:35.615Z,101806.19
2023-01-26T05:39:20.421Z,101803.03
2023-01-26T05:42:05.355Z,101805.56
2023-01-26T05:44:50.123Z,101807.59
2023-01-26T05:47:35.143Z,101819.69
2023-01-26T05:50:19.940Z,101807.75
2023-01-26T05:53:04.997Z,101814.25
2023-01-26T05:55:50.282Z,101804.53
2023-01-26T05:58:35.333Z,101808.44
2023-01-26T06:01:20.192Z,101808.03
2023-01-26T06:04:05.043Z,101800.22
2023-01-26T06:06:53.630Z,101801.16
2023-01-26T06:09:39.129Z,101807.00
2023-01-26T06:12:24.090Z,101810.16
2023-01-26T06:15:09.670Z,101817.66
2023-01-26T06:17:54.771Z,101817.22
2023-01-26T06:20:39.640Z,101819.75
2023-01-26T06:23:24.638Z,101822.50
2023-01-26T06:26:10.936Z,101819.78
2023-01-26T06:28:55.883Z,101826.97
2023-01-26T06:31:41.454Z,101821.41
2023-01-26T06:34:26.977Z,101824.66
2023-01-26T06:37:13.827Z,101833.13
2023-01-26T06:39:59.002Z,101830.19
2023-01-26T06:42:48.603Z,101834.47
2023-01-26T06:45:33.577Z,101829.94
2023-01-26T06:48:18.492Z,101833.91
2023-01-26T06:51:15.666Z,101837.16
2023-01-26T06:54:00.465Z,101844.22
2023-01-26T06:56:45.605Z,101837.16
2023-01-26T06:59:30.802Z,101842.38
2023-01-26T07:02:19.029Z,101837.63
2023-01-26T07:05:04.220Z,101836.81
2023-01-26T07:07:49.343Z,101836.38
2023-01-26T07:10:35.428Z,101839.69
2023-01-26T07:13:20.588Z,101831.00
2023-01-26T07:16:14.168Z,101826.66
2023-01-26T07:18:59.080Z,101844.03
2023-01-26T07:21:43.736Z,101852.03
2023-01-26T07:24:29.265Z,101849.81
2023-01-26T07:27:14.008Z,101842.28
2023-01-26T07:29:58.895Z,101851.16
2023-01-26T07:32:43.795Z,101845.44
2023-01-26T07:35:29.806Z,101845.81
2023-01-26T07:38:14.824Z,101839.13
2023-01-26T07:41:04.043Z,101843.56
2023-01-26T07:43:50.768Z,101844.22
2023-01-26T07:46:35.920Z,101844.97
2023-01-26T07:49:20.791Z,101844.44
2023-01-26T07:52:05.780Z,101843.88
2023-01-26T07:54:51.516Z,101836.38
2023-01-26T07:57:36.572Z,101841.22
2023-01-26T08:00:21.624Z,101836.00
2023-01-26T08:03:07.214Z,101840.56
2023-01-26T08:05:53.032Z,101844.47
2023-01-26T08:08:41.346Z,101845.38
2023-01-26T08:11:26.837Z,101831.75
2023-01-26T08:14:11.804Z,101835.78
2023-01-26T08:16:56.730Z,101838.06
2023-01-26T08:19:41.629Z,101845.59
2023-01-26T08:22:26.305Z,101835.34
2023-01-26T08:25:11.211Z,101840.78
2023-01-26T08:27:56.099Z,101842.16
2023-01-26T08:30:41.158Z,101840.50
2023-01-26T08:33:26.444Z,101844.78
2023-01-26T08:36:13.145Z,101854.28
2023-01-26T08:38:58.066Z,101851.50
2023-01-26T08:41:42.881Z,101852.84
2023-01-26T08:44:27.717Z,101848.22
2023-01-26T08:47:12.693Z,101849.81
2023-01-26T08:49:57.564Z,101850.63
2023-01-26T08:52:42.513Z,101855.47
2023-01-26T08:55:28.493Z,101863.81
2023-01-26T08:58:13.687Z,101859.06
2023-01-26T09:00:58.833Z,101860.16
2023-01-26T09:03:44.804Z,101864.16
2023-01-26T09:06:30.495Z,101871.97
2023-01-26T09:09:15.557Z,101855.66
2023-01-26T09:12:00.643Z,101855.13
2023-01-26T09:14:45.613Z,101856.50
2023-01-26T09:17:30.635Z,101864.56
2023-01-26T09:20:15.983Z,101864.03
2023-01-26T09:23:00.841Z,101868.59
2023-01-26T09:25:45.938Z,101864.56
2023-01-26T09:28:30.963Z,101864.31
2023-01-26T09:31:17.776Z,101864.22
2023-01-26T09:34:02.677Z,101865.97
2023-01-26T09:36:47.534Z,101871.25
2023-01-26T09:39:32.408Z,101874.00
2023-01-26T09:42:29.160Z,101878.31
2023-01-26T09:45:26.433Z,101883.31
2023-01-26T09:48:25.179Z,101871.78
2023-01-26T09:51:17.143Z,101881.81
2023-01-26T09:54:10.981Z,101876.31
2023-01-26T09:56:56.325Z,101877.66
2023-01-26T09:59:49.027Z,101878.03
2023-01-26T10:03:00.926Z,101883.56
2023-01-26T10:06:21.336Z,101887.03
2023-01-26T10:09:15.762Z,101881.69
2023-01-26T10:12:06.750Z,101882.25
2023-01-26T10:15:03.061Z,101878.03
2023-01-26T10:17:48.855Z,101872.66
2023-01-26T10:20:45.059Z,101882.00
2023-01-26T10:23:32.770Z,101882.00
2023-01-26T10:26:18.882Z,101873.09
2023-01-26T10:29:04.321Z,101873.41
2023-01-26T10:31:49.303Z,101871.13
2023-01-26T10:34:34.169Z,101868.94
2023-01-26T10:37:27.178Z,101871.09
2023-01-26T10:40:12.734Z,101871.38
2023-01-26T10:42:59.192Z,101865.88
2023-01-26T10:45:47.106Z,101857.16
2023-01-26T10:48:32.055Z,101859.16
2023-01-26T10:51:24.946Z,101854.19
2023-01-26T10:54:24.145Z,101856.38
2023-01-26T10:57:22.697Z,101846.25
2023-01-26T11:00:24.558Z,101850.69
2023-01-26T11:03:19.472Z,101841.69
2023-01-26T11:06:13.209Z,101837.19
2023-01-26T11:09:13.435Z,101827.59
2023-01-26T11:12:03.624Z,101831.38
2023-01-26T11:15:04.804Z,101834.97
2023-01-26T11:17:59.164Z,101820.22
2023-01-26T11:21:35.421Z,101818.38
2023-01-26T11:24:34.192Z,101817.91
2023-01-26T11:27:43.222Z,101812.75
2023-01-26T11:30:43.219Z,101809.56
2023-01-26T11:33:57.527Z,101817.47
2023-01-26T11:37:00.510Z,101818.34
2023-01-26T11:40:11.622Z,101823.00
2023-01-26T11:43:32.540Z,101814.47
2023-01-26T11:46:43.346Z,101812.63
2023-01-26T11:49:58.816Z,101814.34
2023-01-26T11:53:17.295Z,101800.06
2023-01-26T11:56:15.691Z,101798.94
2023-01-26T11:59:12.221Z,101798.72
2023-01-26T12:02:05.512Z,101792.00
2023-01-26T12:04:52.420Z,101801.44
2023-01-26T12:07:51.317Z,101792.41
2023-01-26T12:10:45.545Z,101799.69
2023-01-26T12:13:40.989Z,101792.09
2023-01-26T12:16:53.080Z,101796.75
2023-01-26T12:19:47.809Z,101790.63
2023-01-26T12:22:37.087Z,101791.16
2023-01-26T12:25:39.299Z,101782.34
2023-01-26T12:28:58.068Z,101790.13
2023-01-26T12:32:00.832Z,101781.84
2023-01-26T12:34:45.923Z,101772.38
2023-01-26T12:37:36.811Z,101768.84
2023-01-26T12:40:40.671Z,101767.72
2023-01-26T12:43:38.391Z,101759.19
2023-01-26T12:46:26.980Z,101756.03
2023-01-26T12:49:25.147Z,101756.44
2023-01-26T12:52:22.042Z,101757.41
2023-01-26T12:55:18.271Z,101756.06
2023-01-26T12:58:13.749Z,101756.91
2023-01-26T13:01:08.687Z,101761.09
2023-01-26T13:04:08.596Z,101754.66
2023-01-26T13:07:24.389Z,101750.94
2023-01-26T13:10:16.033Z,101746.78
2023-01-26T13:13:32.167Z,101745.44
2023-01-26T13:16:17.001Z,101745.81
2023-01-26T13:19:03.080Z,101743.75
2023-01-26T13:21:48.093Z,101735.03
2023-01-26T13:24:33.004Z,101743.25
2023-01-26T13:28:03.928Z,101738.59
2023-01-26T13:31:03.685Z,101726.97
2023-01-26T13:33:49.306Z,101739.72
2023-01-26T13:36:39.153Z,101739.47
2023-01-26T13:39:41.556Z,101746.94
2023-01-26T13:42:37.630Z,101747.56
2023-01-26T13:45:49.867Z,101743.81
2023-01-26T13:48:35.855Z,101735.91
2023-01-26T13:51:24.919Z,101734.88
2023-01-26T13:54:14.681Z,101740.22
2023-01-26T13:57:07.312Z,101740.06
2023-01-26T13:59:54.917Z,101741.56
2023-01-26T14:02:39.924Z,101746.50
2023-01-26T14:05:24.677Z,101748.63
2023-01-26T14:08:15.608Z,101745.88
2023-01-26T14:11:03.926Z,101743.16
2023-01-26T14:13:57.594Z,101746.13
2023-01-26T14:16:42.425Z,101753.19
2023-01-26T14:19:29.456Z,101745.25
2023-01-26T14:22:15.470Z,101751.91
2023-01-26T14:25:00.368Z,101753.72
2023-01-26T14:27:45.034Z,101751.25
2023-01-26T14:30:34.069Z,101753.31
2023-01-26T14:33:22.136Z,101745.00
2023-01-26T14:36:07.883Z,101760.91
2023-01-26T14:38:54.881Z,101753.09
2023-01-26T14:41:40.152Z,101755.63
2023-01-26T14:44:25.273Z,101754.78
2023-01-26T14:47:24.791Z,101760.53
2023-01-26T14:50:22.251Z,101760.00
2023-01-26T14:53:18.738Z,101757.16
2023-01-26T14:56:03.885Z,101758.50
2023-01-26T14:58:51.883Z,101761.47
2023-01-26T15:01:37.141Z,101766.84
2023-01-26T15:04:31.713Z,101758.72
2023-01-26T15:07:52.411Z,101769.84
2023-01-26T15:10:42.791Z,101766.78
2023-01-26T15:13:30.865Z,101769.31
2023-01-26T15:16:18.160Z,101779.75
2023-01-26T15:19:08.650Z,101770.25
2023-01-26T15:21:53.555Z,101770.94
2023-01-26T15:24:38.652Z,101779.59
2023-01-26T15:27:23.875Z,101781.38
2023-01-26T15:30:17.156Z,101776.16
2023-01-26T15:33:02.242Z,101778.81
2023-01-26T15:35:57.210Z,101780.22
2023-01-26T15:38:42.436Z,101780.97
2023-01-26T15:41:28.543Z,101775.25
2023-01-26T15:44:21.357Z,101773.72
2023-01-26T15:47:11.497Z,101784.97
2023-01-26T15:49:57.089Z,101781.16
2023-01-26T15:52:42.334Z,101774.00
2023-01-26T15:55:30.353Z,101776.63
2023-01-26T15:58:15.265Z,101773.03
2023-01-26T16:01:01.366Z,101771.34
2023-01-26T16:03:46.488Z,101770.50
2023-01-26T16:06:33.006Z,101771.63
2023-01-26T16:09:17.754Z,101767.97
2023-01-26T16:12:02.930Z,101767.34
2023-01-26T16:14:47.614Z,101766.88
2023-01-26T16:17:32.473Z,101768.50
2023-01-26T16:20:18.136Z,101768.97
2023-01-26T16:23:03.645Z,101769.28
2023-01-26T16:25:49.624Z,101770.06
2023-01-26T16:28:34.455Z,101769.75
2023-01-26T16:31:22.472Z,101775.47
2023-01-26T16:34:10.023Z,101767.44
2023-01-26T16:36:56.260Z,101772.19
2023-01-26T16:39:41.247Z,101773.88
2023-01-26T16:42:26.113Z,101775.09
2023-01-26T16:45:16.476Z,101770.03
2023-01-26T16:48:01.275Z,101767.50
2023-01-26T16:50:46.493Z,101774.19
2023-01-26T16:53:35.855Z,101772.91
2023-01-26T16:56:21.478Z,101772.75
2023-01-26T16:59:06.709Z,101777.13
2023-01-26T17:01:51.964Z,101775.97
2023-01-26T17:04:37.093Z,101773.09
2023-01-26T17:07:21.991Z,101774.19
2023-01-26T17:10:07.597Z,101769.59
2023-01-26T17:12:52.827Z,101780.03
2023-01-26T17:15:37.981Z,101779.47
2023-01-26T17:18:22.804Z,101784.63
2023-01-26T17:21:07.600Z,101794.41
2023-01-26T17:23:54.635Z,101794.41
2023-01-26T17:26:39.910Z,101794.25
2023-01-26T17:29:24.673Z,101784.47
2023-01-26T17:32:09.638Z,101790.69
2023-01-26T17:34:55.184Z,101795.75
2023-01-26T17:37:40.419Z,101798.91
2023-01-26T17:40:25.445Z,101793.75
2023-01-26T17:43:10.392Z,101797.66
2023-01-26T17:46:10.181Z,101798.66
2023-01-26T17:48:55.666Z,101800.97
2023-01-26T17:51:40.776Z,101803.28
2023-01-26T17:54:26.026Z,101806.81
2023-01-26T17:57:11.967Z,101808.25
2023-01-26T17:59:57.079Z,101806.56
2023-01-26T18:02:41.984Z,101811.72
2023-01-26T18:05:26.872Z,101799.25
2023-01-26T18:08:11.785Z,101798.66
2023-01-26T18:11:01.256Z,101797.53
2023-01-26T18:13:46.139Z,101799.75
2023-01-26T18:16:31.582Z,101800.53
2023-01-26T18:19:16.476Z,101804.06
2023-01-26T18:22:01.203Z,101796.06
2023-01-26T18:24:47.714Z,101795.31
2023-01-26T18:27:32.835Z,101803.00
2023-01-26T18:30:18.380Z,101797.91
2023-01-26T18:33:03.647Z,101799.59
2023-01-26T18:35:48.707Z,101796.91
2023-01-26T18:38:33.542Z,101796.13
2023-01-26T18:41:19.900Z,101794.19
2023-01-26T18:44:05.007Z,101794.63
2023-01-26T18:46:50.183Z,101800.47
2023-01-26T18:49:35.178Z,101795.16
2023-01-26T18:52:20.356Z,101802.25
2023-01-26T18:55:05.645Z,101789.34
2023-01-26T18:57:54.159Z,101793.78
2023-01-26T19:00:39.280Z,101787.22
2023-01-26T19:03:24.451Z,101784.69
2023-01-26T19:06:09.910Z,101789.72
2023-01-26T19:08:59.149Z,101789.13
2023-01-26T19:11:44.231Z,101786.06
2023-01-26T19:14:29.283Z,101783.63
2023-01-26T19:17:14.185Z,101785.22
2023-01-26T19:19:59.094Z,101785.41
2023-01-26T19:22:46.262Z,101776.72
2023-01-26T19:25:31.760Z,101779.91
2023-01-26T19:28:16.889Z,101780.34
2023-01-26T19:31:03.343Z,101775.19
2023-01-26T19:33:57.180Z,101775.28
2023-01-26T19:36:42.044Z,101769.72
2023-01-26T19:39:26.859Z,101767.78
2023-01-26T19:42:11.867Z,101773.84
2023-01-26T19:44:56.568Z,101768.72
2023-01-26T19:47:41.649Z,101771.25
2023-01-26T19:50:26.769Z,101776.16
2023-01-26T19:53:11.713Z,101772.59
2023-01-26T19:55:56.699Z,101769.75
2023-01-26T19:58:41.787Z,101773.88
2023-01-26T20:01:29.268Z,101768.75
2023-01-26T20:04:15.050Z,101768.16
2023-01-26T20:07:01.918Z,101767.97
2023-01-26T20:09:47.274Z,101767.19
2023-01-26T20:12:33.361Z,101769.75
2023-01-26T20:15:21.252Z,101776.00
2023-01-26T20:18:07.412Z,101774.22
2023-01-26T20:20:54.036Z,101769.00
2023-01-26T20:23:48.434Z,101773.72
2023-01-26T20:26:39.419Z,101771.63
2023-01-26T20:29:24.954Z,101764.69
2023-01-26T20:32:10.203Z,101761.00
2023-01-26T20:34:54.924Z,101757.59
2023-01-26T20:37:40.686Z,101757.59
2023-01-26T20:40:26.418Z,101760.56
2023-01-26T20:43:11.564Z,101757.84
2023-01-26T20:45:56.421Z,101759.66
2023-01-26T20:48:41.914Z,101753.63
2023-01-26T20:51:30.473Z,101746.56
2023-01-26T20:54:16.840Z,101749.25
2023-01-26T20:57:02.205Z,101743.09
2023-01-26T20:59:47.137Z,101744.72
2023-01-26T21:02:31.878Z,101748.00
2023-01-26T21:05:17.038Z,101743.59
2023-01-26T21:08:02.147Z,101742.94
2023-01-26T21:10:46.946Z,101741.75
2023-01-26T21:13:31.984Z,101735.34
2023-01-26T21:16:18.071Z,101735.41
2023-01-26T21:19:03.419Z,101728.13
2023-01-26T21:21:48.146Z,101729.00
2023-01-26T21:24:35.079Z,101724.34
2023-01-26T21:27:20.006Z,101731.75
2023-01-26T21:30:05.645Z,101720.03
2023-01-26T21:32:52.621Z,101722.47
2023-01-26T21:35:37.932Z,101726.22
2023-01-26T21:38:24.129Z,101721.09
2023-01-26T21:41:30.797Z,101720.06
2023-01-26T21:44:25.561Z,101721.84
2023-01-26T21:47:10.327Z,101723.63
2023-01-26T21:49:56.059Z,101714.66
2023-01-26T21:52:58.840Z,101713.81
2023-01-26T21:55:46.415Z,101712.78
2023-01-26T21:58:49.939Z,101712.50
2023-01-26T22:01:37.645Z,101711.78
2023-01-26T22:04:28.318Z,101719.53
2023-01-26T22:07:13.610Z,101714.78
2023-01-26T22:09:58.663Z,101718.16
2023-01-26T22:12:43.614Z,101714.03
2023-01-26T22:15:28.302Z,101709.09
2023-01-26T22:18:13.640Z,101713.47
2023-01-26T22:20:58.656Z,101715.06
2023-01-26T22:23:43.609Z,101715.19
2023-01-26T22:26:28.743Z,101711.88
2023-01-26T22:29:14.493Z,101710.78
2023-01-26T22:31:59.744Z,101707.22
2023-01-26T22:34:44.746Z,101710.78
2023-01-26T22:37:30.400Z,101699.63
2023-01-26T22:40:15.629Z,101710.88
2023-01-26T22:43:00.770Z,101698.78
2023-01-26T22:45:45.661Z,101699.47
2023-01-26T22:48:30.990Z,101705.63
2023-01-26T22:51:18.650Z,101703.78
2023-01-26T22:54:04.492Z,101697.75
2023-01-26T22:56:49.571Z,101701.22
2023-01-26T22:59:34.429Z,101693.47
2023-01-26T23:02:19.125Z,101690.00
2023-01-26T23:05:04.134Z,101696.00
2023-01-26T23:07:49.139Z,101694.13
2023-01-26T23:10:34.102Z,101692.53
2023-01-26T23:13:19.255Z,101687.38
2023-01-26T23:16:04.916Z,101683.19
2023-01-26T23:18:50.695Z,101689.44
2023-01-26T23:21:35.869Z,101689.63
2023-01-26T23:24:20.860Z,101694.00
2023-01-26T23:27:05.982Z,101689.78
2023-01-26T23:29:51.110Z,101691.66
2023-01-26T23:32:36.405Z,101684.72
2023-01-26T23:35:21.221Z,101693.50
2023-01-26T23:38:06.088Z,101690.25
2023-01-26T23:40:51.612Z,101693.88
2023-01-26T23:43:36.847Z,101694.97
2023-01-26T23:46:21.707Z,101688.91
2023-01-26T23:49:06.822Z,101696.28
2023-01-26T23:51:52.026Z,101706.59
2023-01-26T23:54:38.127Z,101695.09
2023-01-26T23:57:23.401Z,101697.59
